Terminal Aerodrome Forecast
Issued by NWS Pittsburgh, PA

Current Version | Previous Version | Graphics & Text | Print | Product List | Glossary On
Versions: 1 2 3 4 5 6 7 8 9 10 11 12 13 14 15 16 17 18 19 20 21 22 23 24 25
000
FTUS41 KPBZ 220856 AAA
TAFPIT
TAF AMD
KPIT 220856Z 2209/2312 28006KT P6SM SKC
     FM221100 30004KT P6SM BKN035
     FM221300 32004KT P6SM BKN025
     FM221500 33004KT P6SM SCT040
     FM230000 32004KT P6SM FEW250=

USA.gov is the U.S. government's official web portal to all federal, state and local government web resources and services.